Key West Naval Air Station, Florida
Current Conditions -  °F | °C
As of 9:53 PM on Friday 24 Oct 2014 (Local Time) from KNQX Reporting Station
Scattered Clouds Scattered Clouds  
Wind Chill: 79°   Ceiling: Unl
Heat Index: 82°   Visibility: 10mi
Dew Point: 70°   Wind: 15mph
Humidity: 74%   Direction: 30°NNE
Pressure: 29.86"   Gusts: 22mph
Location:  24.5796°N, 81.6849°W
Report Text: KNQX 250153Z 03013G19KT 10SM FEW025 SCT250 26/21 A2986 RMK AO2 SLP111 T02610211 $
Loading
Personal Weather Stations






























Interactive Weather Map
Tropical Storm Tracking
New forecast layout! Learn more

10-Day Weather Forecast

Advertisements
Track Severe Weather on mobile